createdAt,value
2023-11-07T00:02:10.038Z,3.92
2023-11-07T00:04:37.949Z,4.03
2023-11-07T00:07:05.800Z,3.70
2023-11-07T00:09:33.687Z,3.05
2023-11-07T00:12:03.521Z,2.57
2023-11-07T00:14:31.784Z,2.53
2023-11-07T00:16:59.748Z,3.40
2023-11-07T00:19:28.187Z,2.27
2023-11-07T00:21:56.916Z,2.17
2023-11-07T00:24:24.767Z,2.30
2023-11-07T00:26:52.718Z,2.13
2023-11-07T00:29:24.355Z,2.00
2023-11-07T00:31:52.615Z,2.08
2023-11-07T00:34:25.142Z,2.53
2023-11-07T00:36:53.485Z,1.97
2023-11-07T00:39:21.886Z,1.65
2023-11-07T00:41:49.791Z,2.58
2023-11-07T00:44:19.465Z,1.97
2023-11-07T00:46:48.020Z,2.03
2023-11-07T00:49:16.320Z,1.60
2023-11-07T00:51:44.194Z,1.50
2023-11-07T00:54:13.523Z,1.50
2023-11-07T00:56:42.721Z,1.50
2023-11-07T00:59:10.706Z,1.67
2023-11-07T01:01:38.538Z,1.67
2023-11-07T01:04:06.706Z,1.40
2023-11-07T01:06:36.663Z,1.67
2023-11-07T01:09:05.548Z,1.60
2023-11-07T01:11:33.614Z,1.50
2023-11-07T01:14:03.238Z,1.83
2023-11-07T01:16:31.107Z,1.65
2023-11-07T01:18:59.551Z,2.00
2023-11-07T01:21:27.580Z,1.63
2023-11-07T01:23:57.179Z,1.85
2023-11-07T01:26:25.088Z,1.70
2023-11-07T01:28:53.577Z,1.42
2023-11-07T01:31:23.379Z,1.38
2023-11-07T01:33:51.380Z,1.57
2023-11-07T01:36:19.403Z,1.73
2023-11-07T01:38:47.278Z,1.40
2023-11-07T01:41:15.220Z,1.45
2023-11-07T01:43:43.112Z,1.77
2023-11-07T01:46:10.926Z,1.40
2023-11-07T01:48:38.832Z,1.33
2023-11-07T01:51:06.879Z,1.50
2023-11-07T01:53:34.760Z,1.38
2023-11-07T01:56:02.633Z,1.35
2023-11-07T01:58:30.531Z,1.67
2023-11-07T02:00:58.416Z,1.75
2023-11-07T02:03:26.644Z,2.00
2023-11-07T02:05:56.077Z,2.03
2023-11-07T02:08:24.534Z,2.53
2023-11-07T02:10:52.474Z,2.60
2023-11-07T02:13:20.315Z,2.97
2023-11-07T02:15:48.138Z,2.80
2023-11-07T02:18:16.426Z,3.20
2023-11-07T02:20:46.689Z,4.05
2023-11-07T02:23:31.291Z,4.47
2023-11-07T02:25:59.249Z,5.07
2023-11-07T02:28:27.144Z,5.43
2023-11-07T02:30:59.005Z,5.60
2023-11-07T02:33:27.074Z,6.00
2023-11-07T02:35:56.410Z,6.32
2023-11-07T02:38:24.896Z,6.80
2023-11-07T02:40:52.776Z,6.27
2023-11-07T02:43:23.793Z,7.68
2023-11-07T02:45:52.697Z,8.43
2023-11-07T02:48:20.755Z,9.60
2023-11-07T02:50:48.803Z,10.85
2023-11-07T02:53:16.747Z,10.00
2023-11-07T02:55:44.658Z,10.93
2023-11-07T02:58:12.755Z,9.60
2023-11-07T03:00:40.781Z,10.43
2023-11-07T03:03:09.711Z,10.32
2023-11-07T03:05:37.746Z,10.70
2023-11-07T03:08:07.922Z,9.60
2023-11-07T03:10:36.214Z,10.35
2023-11-07T03:13:04.110Z,10.03
2023-11-07T03:15:32.254Z,9.48
2023-11-07T03:18:00.213Z,9.52
2023-11-07T03:20:28.603Z,9.50
2023-11-07T03:22:56.533Z,9.53
2023-11-07T03:25:24.466Z,9.30
2023-11-07T03:27:52.353Z,8.45
2023-11-07T03:30:20.302Z,8.40
2023-11-07T03:32:48.242Z,8.55
2023-11-07T03:35:16.301Z,8.80
2023-11-07T03:37:44.222Z,8.27
2023-11-07T03:40:13.676Z,8.85
2023-11-07T03:42:41.560Z,8.10
2023-11-07T03:45:09.633Z,8.15
2023-11-07T03:47:37.643Z,8.07
2023-11-07T03:50:05.664Z,8.10
2023-11-07T03:52:33.476Z,7.95
2023-11-07T03:55:01.401Z,6.97
2023-11-07T03:57:29.276Z,7.38
2023-11-07T03:59:57.181Z,6.75
2023-11-07T04:02:28.214Z,6.90
2023-11-07T04:04:56.184Z,6.90
2023-11-07T04:07:24.085Z,6.95
2023-11-07T04:09:52.018Z,6.43
2023-11-07T04:12:19.852Z,6.10
2023-11-07T04:14:47.747Z,5.90
2023-11-07T04:17:16.896Z,6.18
2023-11-07T04:19:44.796Z,6.47
2023-11-07T04:22:12.737Z,5.65
2023-11-07T04:24:41.654Z,6.00
2023-11-07T04:27:09.957Z,6.60
2023-11-07T04:29:40.746Z,5.75
2023-11-07T04:32:08.667Z,6.85
2023-11-07T04:34:36.552Z,6.82
2023-11-07T04:37:04.454Z,6.17
2023-11-07T04:39:32.295Z,6.40
2023-11-07T04:42:00.288Z,5.95
2023-11-07T04:44:28.774Z,6.53
2023-11-07T04:46:56.687Z,5.95
2023-11-07T04:49:24.690Z,6.10
2023-11-07T04:51:52.671Z,6.20
2023-11-07T04:54:20.534Z,6.45
2023-11-07T04:56:48.479Z,5.65
2023-11-07T04:59:16.773Z,5.40
2023-11-07T05:01:49.143Z,5.07
2023-11-07T05:04:17.256Z,5.05
2023-11-07T05:06:45.358Z,5.10
2023-11-07T05:09:14.001Z,5.30
2023-11-07T05:11:42.122Z,4.97
2023-11-07T05:14:10.226Z,4.80
2023-11-07T05:16:43.020Z,5.20
2023-11-07T05:19:11.034Z,5.28
2023-11-07T05:21:38.887Z,4.88
2023-11-07T05:24:06.908Z,5.18
2023-11-07T05:26:34.715Z,5.67
2023-11-07T05:29:02.524Z,5.95
2023-11-07T05:31:32.070Z,5.60
2023-11-07T05:34:01.913Z,5.40
2023-11-07T05:36:29.837Z,5.75
2023-11-07T05:39:00.856Z,5.60
2023-11-07T05:41:28.817Z,5.43
2023-11-07T05:43:56.603Z,5.40
2023-11-07T05:46:24.826Z,5.70
2023-11-07T05:48:53.434Z,5.88
2023-11-07T05:51:21.575Z,5.43
2023-11-07T05:53:50.993Z,5.80
2023-11-07T05:56:18.980Z,6.00
2023-11-07T05:58:49.634Z,5.63
2023-11-07T06:01:17.708Z,5.35
2023-11-07T06:03:45.673Z,5.22
2023-11-07T06:06:13.800Z,5.47
2023-11-07T06:08:41.687Z,5.53
2023-11-07T06:11:09.679Z,6.03
2023-11-07T06:13:37.571Z,5.40
2023-11-07T06:16:06.330Z,5.60
2023-11-07T06:18:34.511Z,5.68
2023-11-07T06:21:02.502Z,5.22
2023-11-07T06:23:30.364Z,5.10
2023-11-07T06:25:58.311Z,5.20
2023-11-07T06:28:26.220Z,5.50
2023-11-07T06:30:54.188Z,5.77
2023-11-07T06:33:22.122Z,5.35
2023-11-07T06:35:51.559Z,5.30
2023-11-07T06:38:22.303Z,4.82
2023-11-07T06:40:50.637Z,5.33
2023-11-07T06:43:18.638Z,5.07
2023-11-07T06:45:49.449Z,4.65
2023-11-07T06:48:17.419Z,5.10
2023-11-07T06:50:45.359Z,4.85
2023-11-07T06:53:13.220Z,5.10
2023-11-07T06:55:41.235Z,4.23
2023-11-07T06:58:09.427Z,4.43
2023-11-07T07:00:40.133Z,4.18
2023-11-07T07:03:08.161Z,4.50
2023-11-07T07:05:36.126Z,3.70
2023-11-07T07:08:04.848Z,4.28
2023-11-07T07:10:33.609Z,4.00
2023-11-07T07:13:02.865Z,4.10
2023-11-07T07:15:30.699Z,4.18
2023-11-07T07:17:58.671Z,4.30
2023-11-07T07:20:30.436Z,4.03
2023-11-07T07:22:58.363Z,5.00
2023-11-07T07:25:28.317Z,4.65
2023-11-07T07:27:56.692Z,4.35
2023-11-07T07:30:27.695Z,4.53
2023-11-07T07:32:56.112Z,4.18
2023-11-07T07:35:24.152Z,3.70
2023-11-07T07:37:54.188Z,3.70
2023-11-07T07:40:30.896Z,4.38
2023-11-07T07:43:12.442Z,3.85
2023-11-07T07:45:44.376Z,4.47
2023-11-07T07:48:13.377Z,3.72
2023-11-07T07:50:48.100Z,3.92
2023-11-07T07:53:22.310Z,3.30
2023-11-07T07:55:52.064Z,3.70
2023-11-07T07:58:20.583Z,3.72
2023-11-07T08:00:56.024Z,3.63
2023-11-07T08:03:24.369Z,3.50
2023-11-07T08:05:52.973Z,2.95
2023-11-07T08:08:23.464Z,3.30
2023-11-07T08:10:53.974Z,3.53
2023-11-07T08:13:24.196Z,3.20
2023-11-07T08:15:52.077Z,3.05
2023-11-07T08:18:20.363Z,2.90
2023-11-07T08:20:48.558Z,2.80
2023-11-07T08:23:16.472Z,2.78
2023-11-07T08:25:44.362Z,2.38
2023-11-07T08:28:12.396Z,2.83
2023-11-07T08:30:44.735Z,2.40
2023-11-07T08:33:14.344Z,2.40
2023-11-07T08:35:42.412Z,2.57
2023-11-07T08:38:10.371Z,2.10
2023-11-07T08:40:38.378Z,2.00
2023-11-07T08:43:06.312Z,2.28
2023-11-07T08:45:35.146Z,2.33
2023-11-07T08:48:03.150Z,2.28
2023-11-07T08:50:31.030Z,2.20
2023-11-07T08:52:59.205Z,1.80
2023-11-07T08:55:27.682Z,2.50
2023-11-07T08:57:56.470Z,2.10
2023-11-07T09:00:24.775Z,2.20
2023-11-07T09:02:54.294Z,2.05
2023-11-07T09:05:23.864Z,1.88
2023-11-07T09:07:51.960Z,1.50
2023-11-07T09:10:24.150Z,1.67
2023-11-07T09:12:52.608Z,1.27
2023-11-07T09:15:26.821Z,1.70
2023-11-07T09:17:55.096Z,1.80
2023-11-07T09:20:23.017Z,1.40
2023-11-07T09:22:50.905Z,1.60
2023-11-07T09:25:18.859Z,1.13
2023-11-07T09:27:48.389Z,1.40
2023-11-07T09:30:16.565Z,1.58
2023-11-07T09:32:45.427Z,1.27
2023-11-07T09:35:13.576Z,1.30
2023-11-07T09:37:41.829Z,0.95
2023-11-07T09:40:22.076Z,1.95
2023-11-07T09:42:52.644Z,1.30
2023-11-07T09:45:21.162Z,1.48
2023-11-07T09:47:50.115Z,1.77
2023-11-07T09:50:23.217Z,1.17
2023-11-07T09:52:51.794Z,1.40
2023-11-07T09:55:19.792Z,1.35
2023-11-07T09:57:48.408Z,1.30
2023-11-07T10:00:19.481Z,1.03
2023-11-07T10:02:50.381Z,1.20
2023-11-07T10:05:22.712Z,1.60
2023-11-07T10:07:50.894Z,1.50
2023-11-07T10:10:19.620Z,1.58
2023-11-07T10:12:50.650Z,1.52
2023-11-07T10:15:19.289Z,1.70
2023-11-07T10:18:00.330Z,1.33
2023-11-07T10:20:31.791Z,1.67
2023-11-07T10:22:59.960Z,1.50
2023-11-07T10:25:34.769Z,1.97
2023-11-07T10:28:07.258Z,1.55
2023-11-07T10:30:46.600Z,1.88
2023-11-07T10:33:25.405Z,1.80
2023-11-07T10:35:57.290Z,1.83
2023-11-07T10:38:25.331Z,2.53
2023-11-07T10:40:53.409Z,2.00
2023-11-07T10:43:36.738Z,1.90
2023-11-07T10:46:04.778Z,2.00
2023-11-07T10:48:34.844Z,1.92
2023-11-07T10:51:06.748Z,2.00
2023-11-07T10:53:35.053Z,1.90
2023-11-07T10:56:05.449Z,1.80
2023-11-07T10:58:33.989Z,1.90
2023-11-07T11:01:03.672Z,1.75
2023-11-07T11:03:32.101Z,1.80
2023-11-07T11:06:01.690Z,2.23
2023-11-07T11:08:29.938Z,2.17
2023-11-07T11:10:58.860Z,1.83
2023-11-07T11:13:26.762Z,1.80
2023-11-07T11:15:55.061Z,1.70
2023-11-07T11:18:30.485Z,2.00
2023-11-07T11:20:59.698Z,1.60
2023-11-07T11:24:03.131Z,2.07
2023-11-07T11:26:48.771Z,1.70
2023-11-07T11:29:26.394Z,2.38
2023-11-07T11:31:55.101Z,2.17
2023-11-07T11:34:27.145Z,1.80
2023-11-07T11:36:58.112Z,1.70
2023-11-07T11:39:30.405Z,1.65
2023-11-07T11:41:59.124Z,1.80
2023-11-07T11:44:27.169Z,1.40
2023-11-07T11:46:58.554Z,1.67
2023-11-07T11:49:26.508Z,1.60
2023-11-07T11:51:55.492Z,1.70
2023-11-07T11:54:27.615Z,1.67
2023-11-07T11:56:58.320Z,1.50
2023-11-07T11:59:26.720Z,1.20
2023-11-07T12:01:55.457Z,1.50
2023-11-07T12:04:42.391Z,1.25
2023-11-07T12:07:16.627Z,1.63
2023-11-07T12:09:46.096Z,1.60
2023-11-07T12:12:16.224Z,1.48
2023-11-07T12:14:51.098Z,1.70
2023-11-07T12:17:19.058Z,1.52
2023-11-07T12:19:47.191Z,1.58
2023-11-07T12:22:15.212Z,1.43
2023-11-07T12:24:43.185Z,1.50
2023-11-07T12:27:11.412Z,1.40
2023-11-07T12:29:39.345Z,1.60
2023-11-07T12:32:07.308Z,0.83
2023-11-07T12:34:35.990Z,1.05
2023-11-07T12:37:08.350Z,1.08
2023-11-07T12:39:36.460Z,1.67
2023-11-07T12:42:04.730Z,1.05
2023-11-07T12:44:32.661Z,1.10
2023-11-07T12:47:00.544Z,1.23
2023-11-07T12:49:31.136Z,0.88
2023-11-07T12:51:59.060Z,1.20
2023-11-07T12:54:29.915Z,0.95
2023-11-07T12:56:57.849Z,1.20
2023-11-07T12:59:25.945Z,0.90
2023-11-07T13:01:53.884Z,0.80
2023-11-07T13:04:23.186Z,1.03
2023-11-07T13:06:58.304Z,1.35
2023-11-07T13:09:32.268Z,1.00
2023-11-07T13:12:12.271Z,0.90
2023-11-07T13:14:40.276Z,1.48
2023-11-07T13:17:09.599Z,1.52
2023-11-07T13:19:37.718Z,1.42
2023-11-07T13:22:06.088Z,1.30
2023-11-07T13:24:36.917Z,1.08
2023-11-07T13:27:05.073Z,1.45
2023-11-07T13:29:33.024Z,1.00
2023-11-07T13:32:01.031Z,1.25
2023-11-07T13:34:29.041Z,1.00
2023-11-07T13:36:58.301Z,1.10
2023-11-07T13:39:26.273Z,0.80
2023-11-07T13:41:54.521Z,0.90
2023-11-07T13:44:23.725Z,0.90
2023-11-07T13:46:52.324Z,0.87
2023-11-07T13:49:20.655Z,0.80
2023-11-07T13:51:48.524Z,0.75
2023-11-07T13:54:16.598Z,1.00
2023-11-07T13:56:44.756Z,0.70
2023-11-07T13:59:12.660Z,1.10
2023-11-07T14:01:41.749Z,1.00
2023-11-07T14:04:10.907Z,0.85
2023-11-07T14:06:39.356Z,0.60
2023-11-07T14:09:09.860Z,0.70
2023-11-07T14:11:37.992Z,0.90
2023-11-07T14:14:05.982Z,0.80
2023-11-07T14:16:33.911Z,0.80
2023-11-07T14:19:07.706Z,1.07
2023-11-07T14:21:36.338Z,0.98
2023-11-07T14:24:04.908Z,0.80
2023-11-07T14:26:37.542Z,1.00
2023-11-07T14:29:26.503Z,1.15
2023-11-07T14:31:56.830Z,1.00
2023-11-07T14:34:24.896Z,1.25
2023-11-07T14:36:52.914Z,0.67
2023-11-07T14:39:21.579Z,1.38
2023-11-07T14:41:52.287Z,1.00
2023-11-07T14:44:20.305Z,1.20
2023-11-07T14:46:48.178Z,1.08
2023-11-07T14:49:17.191Z,1.10
2023-11-07T14:51:45.307Z,1.40
2023-11-07T14:54:15.299Z,1.27
2023-11-07T14:56:51.289Z,1.00
2023-11-07T14:59:25.890Z,1.40
2023-11-07T15:01:53.723Z,1.43
2023-11-07T15:04:21.683Z,1.42
2023-11-07T15:06:51.188Z,1.20
2023-11-07T15:09:19.126Z,1.47
2023-11-07T15:11:49.369Z,1.27
2023-11-07T15:14:17.181Z,1.08
2023-11-07T15:16:46.754Z,1.57
2023-11-07T15:19:14.747Z,1.10
2023-11-07T15:21:42.633Z,0.90
2023-11-07T15:24:10.605Z,1.10
2023-11-07T15:26:39.003Z,0.97
2023-11-07T15:29:07.280Z,1.20
2023-11-07T15:31:35.206Z,1.23
2023-11-07T15:34:04.490Z,0.70
2023-11-07T15:36:32.519Z,0.90
2023-11-07T15:39:00.520Z,1.05
2023-11-07T15:41:28.404Z,0.70
2023-11-07T15:43:57.531Z,0.70
2023-11-07T15:46:25.439Z,0.98
2023-11-07T15:48:53.450Z,1.00
2023-11-07T15:51:21.340Z,0.70
2023-11-07T15:53:49.194Z,0.88
2023-11-07T15:56:17.619Z,1.13
2023-11-07T15:58:45.501Z,1.20
2023-11-07T16:01:15.950Z,0.70
2023-11-07T16:03:44.547Z,0.93
2023-11-07T16:06:14.576Z,0.90
2023-11-07T16:08:42.485Z,0.82
2023-11-07T16:11:10.381Z,1.10
2023-11-07T16:13:38.306Z,0.98
2023-11-07T16:16:06.384Z,0.70
2023-11-07T16:18:34.541Z,0.70
2023-11-07T16:21:02.553Z,0.65
2023-11-07T16:23:30.413Z,0.93
2023-11-07T16:26:00.455Z,1.23
2023-11-07T16:28:28.705Z,0.60
2023-11-07T16:30:58.692Z,1.23
2023-11-07T16:33:26.692Z,0.50
2023-11-07T16:35:54.655Z,0.77
2023-11-07T16:38:22.572Z,1.00
2023-11-07T16:40:50.482Z,1.30
2023-11-07T16:43:18.353Z,1.70
2023-11-07T16:45:46.730Z,1.05
2023-11-07T16:48:14.691Z,0.83
2023-11-07T16:50:42.644Z,1.08
2023-11-07T16:53:10.544Z,1.08
2023-11-07T16:55:38.432Z,1.30
2023-11-07T16:58:08.140Z,2.42
2023-11-07T17:00:36.105Z,1.48
2023-11-07T17:03:04.199Z,1.48
2023-11-07T17:05:34.307Z,1.30
2023-11-07T17:08:05.479Z,1.52
2023-11-07T17:10:33.312Z,1.80
2023-11-07T17:13:02.552Z,2.47
2023-11-07T17:15:30.552Z,1.70
2023-11-07T17:17:59.525Z,2.30
2023-11-07T17:20:27.531Z,2.30
2023-11-07T17:22:55.407Z,1.73
2023-11-07T17:25:23.717Z,1.50
2023-11-07T17:27:51.571Z,1.80
2023-11-07T17:30:21.430Z,1.63
2023-11-07T17:32:49.552Z,2.10
2023-11-07T17:35:17.446Z,2.03
2023-11-07T17:37:45.382Z,2.03
2023-11-07T17:40:13.461Z,1.98
2023-11-07T17:42:41.568Z,1.98
2023-11-07T17:45:11.261Z,1.90
2023-11-07T17:47:39.511Z,1.52
2023-11-07T17:50:09.748Z,1.60
2023-11-07T17:52:39.770Z,1.67
2023-11-07T17:55:07.827Z,2.10
2023-11-07T17:57:36.084Z,1.90
2023-11-07T18:00:05.068Z,1.83
2023-11-07T18:02:40.409Z,1.70
2023-11-07T18:05:08.483Z,1.95
2023-11-07T18:07:39.620Z,2.10
2023-11-07T18:10:10.315Z,2.00
2023-11-07T18:12:38.219Z,1.83
2023-11-07T18:15:06.361Z,1.67
2023-11-07T18:17:34.399Z,1.70
2023-11-07T18:20:02.333Z,2.07
2023-11-07T18:22:30.272Z,1.85
2023-11-07T18:25:00.346Z,2.58
2023-11-07T18:27:29.340Z,2.27
2023-11-07T18:29:57.293Z,3.78
2023-11-07T18:32:25.185Z,3.90
2023-11-07T18:34:53.347Z,2.47
2023-11-07T18:37:22.474Z,2.83
2023-11-07T18:39:50.307Z,3.15
2023-11-07T18:42:18.904Z,3.05
2023-11-07T18:44:47.369Z,2.97
2023-11-07T18:47:15.332Z,2.92
2023-11-07T18:49:43.274Z,2.80
2023-11-07T18:52:11.811Z,3.00
2023-11-07T18:54:39.772Z,3.47
2023-11-07T18:57:13.222Z,3.20
2023-11-07T18:59:41.163Z,2.90
2023-11-07T19:02:11.081Z,3.22
2023-11-07T19:04:39.266Z,2.80
2023-11-07T19:07:08.531Z,1.90
2023-11-07T19:09:36.744Z,1.53
2023-11-07T19:12:04.925Z,1.10
2023-11-07T19:14:33.516Z,1.65
2023-11-07T19:17:01.690Z,1.70
2023-11-07T19:19:30.275Z,1.40
2023-11-07T19:22:02.366Z,0.73
2023-11-07T19:24:30.497Z,0.50
2023-11-07T19:26:59.369Z,0.70
2023-11-07T19:29:27.234Z,0.43
2023-11-07T19:31:55.446Z,0.55
2023-11-07T19:34:24.073Z,0.60
2023-11-07T19:36:52.188Z,1.33
2023-11-07T19:39:22.117Z,1.45
2023-11-07T19:41:50.172Z,2.80
2023-11-07T19:44:18.101Z,3.13
2023-11-07T19:46:46.073Z,3.67
2023-11-07T19:49:14.350Z,3.37
2023-11-07T19:51:46.461Z,3.20
2023-11-07T19:54:35.266Z,3.65
2023-11-07T19:57:03.282Z,3.67
2023-11-07T19:59:31.341Z,3.73
2023-11-07T20:02:02.392Z,3.80
2023-11-07T20:04:30.414Z,4.05
2023-11-07T20:06:58.712Z,4.03
2023-11-07T20:09:26.808Z,3.83
2023-11-07T20:11:54.859Z,4.35
2023-11-07T20:14:23.247Z,3.83
2023-11-07T20:16:51.310Z,3.70
2023-11-07T20:19:20.564Z,4.38
2023-11-07T20:21:49.873Z,4.63
2023-11-07T20:24:17.959Z,4.60
2023-11-07T20:26:45.953Z,4.85
2023-11-07T20:29:14.169Z,4.53
2023-11-07T20:31:45.045Z,5.10
2023-11-07T20:34:13.183Z,4.60
2023-11-07T20:36:41.269Z,4.97
2023-11-07T20:39:10.189Z,4.53
2023-11-07T20:41:38.079Z,4.55
2023-11-07T20:44:07.626Z,4.30
2023-11-07T20:46:36.751Z,3.30
2023-11-07T20:49:08.516Z,2.50
2023-11-07T20:51:38.124Z,4.15
2023-11-07T20:54:07.002Z,3.90
2023-11-07T20:56:40.186Z,3.30
2023-11-07T20:59:08.602Z,2.55
2023-11-07T21:01:36.400Z,2.20
2023-11-07T21:04:04.700Z,1.80
2023-11-07T21:06:32.627Z,1.65
2023-11-07T21:09:00.609Z,1.48
2023-11-07T21:11:28.447Z,0.98
2023-11-07T21:13:57.142Z,0.70
2023-11-07T21:16:25.619Z,0.82
2023-11-07T21:18:55.762Z,0.60
2023-11-07T21:21:23.842Z,1.20
2023-11-07T21:23:52.908Z,1.15
2023-11-07T21:26:22.835Z,1.83
2023-11-07T21:28:55.882Z,1.40
2023-11-07T21:31:23.988Z,2.20
2023-11-07T21:33:51.966Z,2.20
2023-11-07T21:36:19.975Z,2.05
2023-11-07T21:38:48.636Z,2.73
2023-11-07T21:41:16.496Z,2.58
2023-11-07T21:43:46.012Z,3.45
2023-11-07T21:46:13.905Z,3.27
2023-11-07T21:48:41.907Z,3.20
2023-11-07T21:51:09.799Z,2.60
2023-11-07T21:53:37.643Z,2.20
2023-11-07T21:56:05.472Z,1.67
2023-11-07T21:58:33.323Z,1.85
2023-11-07T22:01:01.205Z,1.77
2023-11-07T22:03:29.040Z,2.37
2023-11-07T22:05:57.049Z,1.92
2023-11-07T22:08:26.631Z,2.10
2023-11-07T22:10:55.050Z,3.03
2023-11-07T22:13:24.253Z,3.63
2023-11-07T22:15:53.648Z,4.32
2023-11-07T22:18:21.494Z,4.10
2023-11-07T22:20:49.552Z,3.85
2023-11-07T22:23:17.470Z,4.18
2023-11-07T22:25:45.544Z,4.20
2023-11-07T22:28:16.363Z,3.90
2023-11-07T22:30:44.335Z,3.78
2023-11-07T22:33:12.430Z,3.88
2023-11-07T22:35:40.329Z,3.87
2023-11-07T22:38:09.159Z,3.00
2023-11-07T22:40:37.099Z,3.10
2023-11-07T22:43:05.885Z,2.83
2023-11-07T22:45:33.789Z,2.65
2023-11-07T22:48:01.835Z,3.00
2023-11-07T22:50:29.816Z,3.05
2023-11-07T22:52:57.708Z,3.40
2023-11-07T22:55:26.408Z,3.15
2023-11-07T22:57:54.277Z,4.03
2023-11-07T23:00:40.152Z,3.30
2023-11-07T23:03:09.577Z,3.80
2023-11-07T23:05:39.842Z,3.72
2023-11-07T23:08:10.294Z,3.27
2023-11-07T23:10:42.085Z,3.17
2023-11-07T23:13:10.038Z,2.90
2023-11-07T23:15:38.688Z,2.80
2023-11-07T23:18:07.195Z,2.80
2023-11-07T23:20:36.584Z,2.30
2023-11-07T23:23:04.606Z,2.58
2023-11-07T23:25:32.477Z,1.97
2023-11-07T23:28:01.430Z,1.95
2023-11-07T23:30:29.365Z,2.10
2023-11-07T23:33:01.106Z,2.10
2023-11-07T23:35:29.434Z,2.42
2023-11-07T23:37:57.802Z,1.98
2023-11-07T23:40:26.225Z,2.50
2023-11-07T23:42:54.125Z,2.27
2023-11-07T23:45:23.479Z,2.95
2023-11-07T23:47:51.439Z,2.20
2023-11-07T23:50:20.565Z,2.70
2023-11-07T23:52:48.612Z,1.88
2023-11-07T23:55:16.437Z,1.80
2023-11-07T23:57:44.824Z,2.60
